createdAt,value
2022-10-17T00:01:12.116Z,8.20
2022-10-17T00:03:40.733Z,7.95
2022-10-17T00:06:15.084Z,7.60
2022-10-17T00:08:44.712Z,8.00
2022-10-17T00:11:23.429Z,8.25
2022-10-17T00:13:55.252Z,8.35
2022-10-17T00:16:33.985Z,9.07
2022-10-17T00:19:02.025Z,8.25
2022-10-17T00:21:30.020Z,8.73
2022-10-17T00:23:59.423Z,8.20
2022-10-17T00:26:29.694Z,8.75
2022-10-17T00:28:58.421Z,8.20
2022-10-17T00:31:26.407Z,9.43
2022-10-17T00:33:54.912Z,7.55
2022-10-17T00:36:26.294Z,8.25
2022-10-17T00:41:30.220Z,8.20
2022-10-17T00:44:02.622Z,7.18
2022-10-17T00:46:34.222Z,7.85
2022-10-17T00:49:12.938Z,7.18
2022-10-17T00:51:49.582Z,6.93
2022-10-17T00:54:23.300Z,7.82
2022-10-17T00:56:52.443Z,7.80
2022-10-17T00:59:22.121Z,8.13
2022-10-17T01:02:14.960Z,7.90
2022-10-17T01:04:46.790Z,7.68
2022-10-17T01:07:15.151Z,7.70
2022-10-17T01:09:45.885Z,7.18
2022-10-17T01:12:36.300Z,7.32
2022-10-17T01:15:17.431Z,7.57
2022-10-17T01:18:29.322Z,7.50
2022-10-17T01:21:15.154Z,6.85
2022-10-17T01:24:27.999Z,7.55
2022-10-17T01:27:36.150Z,7.07
2022-10-17T01:30:09.916Z,8.02
2022-10-17T01:33:03.806Z,7.85
2022-10-17T01:35:45.143Z,8.02
2022-10-17T01:38:44.425Z,8.00
2022-10-17T01:41:33.953Z,7.30
2022-10-17T01:44:20.308Z,7.10
2022-10-17T01:46:54.384Z,7.00
2022-10-17T01:49:27.923Z,7.38
2022-10-17T01:52:12.678Z,7.93
2022-10-17T01:54:50.359Z,8.07
2022-10-17T01:57:33.634Z,7.70
2022-10-17T02:00:06.540Z,7.75
2022-10-17T02:02:44.121Z,7.28
2022-10-17T02:05:12.506Z,7.13
2022-10-17T02:07:42.581Z,6.95
2022-10-17T02:10:26.627Z,9.90
2022-10-17T02:13:20.232Z,8.02
2022-10-17T02:16:20.087Z,8.23
2022-10-17T02:19:11.973Z,6.90
2022-10-17T02:21:56.071Z,6.97
2022-10-17T02:24:59.651Z,6.68
2022-10-17T02:27:48.660Z,8.18
2022-10-17T02:30:53.266Z,13.70
2022-10-17T02:33:37.188Z,9.93
2022-10-17T02:36:22.161Z,11.35
2022-10-17T02:38:52.763Z,10.20
2022-10-17T02:41:22.370Z,8.13
2022-10-17T02:43:55.632Z,8.10
2022-10-17T02:46:28.902Z,8.57
2022-10-17T02:49:22.043Z,7.68
2022-10-17T02:52:06.710Z,8.32
2022-10-17T02:54:48.704Z,9.65
2022-10-17T02:59:55.984Z,11.13
2022-10-17T03:02:25.228Z,7.88
2022-10-17T03:04:53.738Z,7.43
2022-10-17T03:07:21.724Z,8.02
2022-10-17T03:09:49.692Z,7.57
2022-10-17T03:12:17.655Z,7.80
2022-10-17T03:14:45.884Z,7.45
2022-10-17T03:17:13.906Z,7.28
2022-10-17T03:19:42.060Z,7.82
2022-10-17T03:22:10.346Z,7.72
2022-10-17T03:24:39.792Z,7.85
2022-10-17T03:27:08.067Z,8.68
2022-10-17T03:29:38.349Z,8.30
2022-10-17T03:32:08.219Z,8.00
2022-10-17T03:34:37.907Z,7.38
2022-10-17T03:37:05.940Z,7.40
2022-10-17T03:39:36.096Z,7.43
2022-10-17T03:42:04.521Z,7.65
2022-10-17T03:44:32.954Z,8.20
2022-10-17T03:47:00.953Z,7.65
2022-10-17T03:49:28.953Z,8.13
2022-10-17T03:51:57.050Z,7.65
2022-10-17T03:54:26.027Z,8.40
2022-10-17T03:56:54.239Z,7.65
2022-10-17T03:59:22.445Z,8.38
2022-10-17T04:02:00.017Z,8.20
2022-10-17T04:04:29.239Z,8.57
2022-10-17T04:06:57.336Z,7.93
2022-10-17T04:09:25.731Z,7.97
2022-10-17T04:12:02.448Z,8.70
2022-10-17T04:14:32.508Z,8.45
2022-10-17T04:17:00.666Z,8.15
2022-10-17T04:19:30.004Z,7.70
2022-10-17T04:21:58.226Z,7.07
2022-10-17T04:24:29.024Z,8.10
2022-10-17T04:27:20.184Z,7.30
2022-10-17T04:29:48.627Z,7.80
2022-10-17T04:32:24.707Z,7.78
2022-10-17T04:35:15.105Z,7.00
2022-10-17T04:37:47.902Z,7.40
2022-10-17T04:40:21.057Z,7.90
2022-10-17T04:42:49.999Z,7.15
2022-10-17T04:45:21.558Z,7.55
2022-10-17T04:48:10.090Z,7.45
2022-10-17T04:50:38.080Z,7.78
2022-10-17T04:53:27.876Z,7.47
2022-10-17T04:55:56.375Z,7.35
2022-10-17T04:58:24.919Z,8.15
2022-10-17T05:00:53.476Z,7.40
2022-10-17T05:03:24.360Z,7.28
2022-10-17T05:05:52.501Z,7.65
2022-10-17T05:08:20.752Z,6.95
2022-10-17T05:10:48.699Z,7.63
2022-10-17T05:13:16.569Z,6.95
2022-10-17T05:15:44.692Z,7.45
2022-10-17T05:18:13.783Z,7.07
2022-10-17T05:20:43.820Z,7.70
2022-10-17T05:23:12.206Z,8.40
2022-10-17T05:28:12.716Z,7.40
2022-10-17T05:30:43.050Z,6.57
2022-10-17T05:33:11.312Z,6.50
2022-10-17T05:35:39.512Z,7.32
2022-10-17T05:38:07.723Z,6.47
2022-10-17T05:40:41.755Z,6.75
2022-10-17T05:43:09.910Z,6.63
2022-10-17T05:45:41.728Z,7.28
2022-10-17T05:48:14.764Z,6.93
2022-10-17T05:50:42.703Z,7.00
2022-10-17T05:53:17.093Z,6.78
2022-10-17T05:56:00.427Z,7.35
2022-10-17T06:01:43.617Z,7.05
2022-10-17T06:04:12.310Z,7.35
2022-10-17T06:06:41.103Z,7.05
2022-10-17T06:09:10.661Z,6.50
2022-10-17T06:11:42.795Z,6.40
2022-10-17T06:14:11.681Z,6.03
2022-10-17T06:16:41.341Z,6.63
2022-10-17T06:19:11.795Z,6.20
2022-10-17T06:21:40.030Z,6.03
2022-10-17T06:24:13.821Z,6.15
2022-10-17T06:26:43.371Z,6.35
2022-10-17T06:29:14.701Z,6.10
2022-10-17T06:31:52.067Z,6.38
2022-10-17T06:34:22.584Z,6.07
2022-10-17T06:36:50.732Z,5.43
2022-10-17T06:39:20.304Z,6.20
2022-10-17T06:41:59.138Z,5.75
2022-10-17T06:44:44.507Z,5.60
2022-10-17T06:47:38.939Z,6.13
2022-10-17T06:50:21.298Z,5.97
2022-10-17T06:53:00.092Z,6.32
2022-10-17T06:55:46.521Z,5.78
2022-10-17T06:58:30.752Z,5.50
2022-10-17T07:01:13.974Z,5.90
2022-10-17T07:03:44.039Z,5.72
2022-10-17T07:06:13.388Z,5.75
2022-10-17T07:08:44.919Z,5.65
2022-10-17T07:11:19.235Z,5.95
2022-10-17T07:13:49.243Z,5.72
2022-10-17T07:16:17.561Z,6.07
2022-10-17T07:18:52.611Z,6.47
2022-10-17T07:21:21.577Z,6.40
2022-10-17T07:23:49.871Z,6.50
2022-10-17T07:26:19.731Z,6.95
2022-10-17T07:28:53.660Z,6.60
2022-10-17T07:31:31.637Z,6.93
2022-10-17T07:34:04.614Z,7.55
2022-10-17T07:36:32.799Z,7.05
2022-10-17T07:39:03.614Z,8.37
2022-10-17T07:41:33.001Z,8.23
2022-10-17T07:44:02.643Z,7.75
2022-10-17T07:46:35.983Z,8.07
2022-10-17T07:49:04.096Z,6.72
2022-10-17T07:51:32.023Z,7.90
2022-10-17T07:54:00.178Z,7.63
2022-10-17T07:56:29.852Z,7.80
2022-10-17T07:58:58.698Z,10.15
2022-10-17T08:01:28.654Z,8.73
2022-10-17T08:03:56.606Z,8.55
2022-10-17T08:06:24.474Z,8.77
2022-10-17T08:08:52.627Z,8.73
2022-10-17T08:11:21.758Z,9.75
2022-10-17T08:13:49.725Z,8.40
2022-10-17T08:16:17.767Z,7.38
2022-10-17T08:18:45.929Z,6.93
2022-10-17T08:21:13.925Z,6.95
2022-10-17T08:23:42.122Z,6.70
2022-10-17T08:26:15.698Z,6.15
2022-10-17T08:28:44.428Z,5.75
2022-10-17T08:31:19.627Z,6.10
2022-10-17T08:33:49.745Z,6.20
2022-10-17T08:36:20.216Z,6.20
2022-10-17T08:38:52.595Z,6.20
2022-10-17T08:41:35.803Z,6.22
2022-10-17T08:44:38.082Z,6.63
2022-10-17T08:47:16.369Z,8.15
2022-10-17T08:49:51.491Z,7.55
2022-10-17T08:53:12.065Z,7.63
2022-10-17T08:55:52.009Z,7.15
2022-10-17T08:58:34.838Z,8.65
2022-10-17T09:01:36.460Z,7.22
2022-10-17T09:04:38.178Z,7.90
2022-10-17T09:07:42.997Z,8.35
2022-10-17T09:10:58.843Z,8.07
2022-10-17T09:13:54.750Z,7.43
2022-10-17T09:16:37.402Z,9.50
2022-10-17T09:19:21.457Z,9.05
2022-10-17T09:22:06.572Z,8.98
2022-10-17T09:24:48.132Z,8.10
2022-10-17T09:27:48.955Z,7.60
2022-10-17T09:30:45.063Z,7.90
2022-10-17T09:33:42.261Z,7.35
2022-10-17T09:36:22.249Z,7.28
2022-10-17T09:38:59.184Z,6.28
2022-10-17T09:41:50.281Z,7.43
2022-10-17T09:44:30.982Z,7.35
2022-10-17T09:47:24.089Z,7.40
2022-10-17T09:49:52.207Z,7.97
2022-10-17T09:52:36.974Z,8.15
2022-10-17T09:55:18.022Z,7.07
2022-10-17T09:58:03.221Z,7.40
2022-10-17T10:00:37.064Z,7.72
2022-10-17T10:03:26.109Z,7.47
2022-10-17T10:06:21.916Z,7.65
2022-10-17T10:08:55.194Z,7.22
2022-10-17T10:11:44.131Z,7.38
2022-10-17T10:14:20.987Z,7.13
2022-10-17T10:16:50.447Z,6.43
2022-10-17T10:19:29.355Z,6.82
2022-10-17T10:22:28.050Z,7.05
2022-10-17T10:25:11.298Z,7.10
2022-10-17T10:27:42.123Z,7.25
2022-10-17T10:30:30.417Z,7.65
2022-10-17T10:33:00.971Z,7.38
2022-10-17T10:35:38.934Z,7.57
2022-10-17T10:38:18.053Z,7.20
2022-10-17T10:40:51.340Z,7.82
2022-10-17T10:43:41.464Z,8.88
2022-10-17T10:46:31.483Z,7.90
2022-10-17T10:49:03.399Z,6.82
2022-10-17T10:51:49.125Z,8.25
2022-10-17T10:54:26.711Z,8.35
2022-10-17T10:56:59.598Z,8.40
2022-10-17T10:59:56.783Z,7.82
2022-10-17T11:03:18.743Z,6.97
2022-10-17T11:05:56.167Z,7.45
2022-10-17T11:08:35.614Z,7.28
2022-10-17T11:11:24.915Z,8.38
2022-10-17T11:14:42.548Z,8.52
2022-10-17T11:17:23.656Z,7.57
2022-10-17T11:20:34.420Z,7.10
2022-10-17T11:23:21.780Z,8.05
2022-10-17T11:25:54.594Z,8.65
2022-10-17T11:28:24.986Z,7.90
2022-10-17T11:31:27.094Z,7.70
2022-10-17T11:36:38.174Z,7.13
2022-10-17T11:39:10.686Z,7.50
2022-10-17T11:41:53.370Z,7.72
2022-10-17T11:44:40.626Z,8.77
2022-10-17T11:47:27.649Z,8.25
2022-10-17T11:53:08.400Z,8.15
2022-10-17T11:55:40.798Z,8.55
2022-10-17T12:01:36.626Z,7.65
2022-10-17T12:04:17.107Z,7.93
2022-10-17T12:07:19.778Z,7.72
2022-10-17T12:10:08.102Z,8.27
2022-10-17T12:12:38.349Z,7.93
2022-10-17T12:15:23.647Z,7.53
2022-10-17T12:18:03.120Z,8.13
2022-10-17T12:20:37.283Z,8.05
2022-10-17T12:23:11.476Z,7.43
2022-10-17T12:26:04.820Z,7.90
2022-10-17T12:28:46.894Z,7.43
2022-10-17T12:31:33.552Z,7.65
2022-10-17T12:34:08.441Z,8.43
2022-10-17T12:36:38.218Z,7.28
2022-10-17T12:39:11.732Z,7.60
2022-10-17T12:41:40.170Z,8.23
2022-10-17T12:44:15.152Z,8.43
2022-10-17T12:47:11.060Z,7.60
2022-10-17T12:49:53.096Z,7.38
2022-10-17T12:52:34.155Z,6.80
2022-10-17T12:55:11.945Z,7.68
2022-10-17T12:57:49.552Z,6.78
2022-10-17T13:01:11.698Z,6.85
2022-10-17T13:06:25.106Z,8.20
2022-10-17T13:09:05.598Z,6.95
2022-10-17T13:11:36.612Z,7.25
2022-10-17T13:14:14.751Z,7.47
2022-10-17T13:17:06.127Z,8.02
2022-10-17T13:19:46.222Z,7.47
2022-10-17T13:22:23.313Z,6.85
2022-10-17T13:24:53.772Z,7.47
2022-10-17T13:27:39.568Z,7.20
2022-10-17T13:30:31.110Z,7.22
2022-10-17T13:33:03.159Z,9.43
2022-10-17T13:38:32.802Z,7.40
2022-10-17T13:41:30.047Z,6.70
2022-10-17T13:43:52.339Z,7.78
2022-10-17T13:46:39.486Z,7.13
2022-10-17T13:49:40.652Z,7.25
2022-10-17T13:52:22.340Z,7.32
2022-10-17T13:54:53.961Z,7.47
2022-10-17T13:57:26.298Z,7.57
2022-10-17T14:00:00.154Z,7.80
2022-10-17T14:02:31.553Z,9.43
2022-10-17T14:08:13.347Z,9.20
2022-10-17T14:10:44.131Z,7.57
2022-10-17T14:13:25.745Z,9.05
2022-10-17T14:18:37.159Z,9.15
2022-10-17T14:24:28.950Z,8.95
2022-10-17T14:26:59.919Z,9.68
2022-10-17T14:29:51.306Z,8.95
2022-10-17T14:32:20.485Z,10.60
2022-10-17T14:35:05.620Z,13.00
2022-10-17T14:37:49.058Z,14.90
2022-10-17T14:40:23.858Z,15.43
2022-10-17T14:42:59.425Z,13.68
2022-10-17T14:45:38.818Z,11.30
2022-10-17T14:48:17.892Z,8.90
2022-10-17T14:51:10.931Z,8.13
2022-10-17T14:53:40.199Z,7.63
2022-10-17T14:56:35.981Z,7.47
2022-10-17T14:59:07.580Z,7.03
2022-10-17T15:01:39.507Z,7.10
2022-10-17T15:04:10.986Z,7.15
2022-10-17T15:09:11.673Z,7.30
2022-10-17T15:11:40.051Z,7.85
2022-10-17T15:14:08.437Z,9.48
2022-10-17T15:16:37.332Z,14.68
2022-10-17T15:19:05.419Z,19.50
2022-10-17T15:21:40.495Z,19.38
2022-10-17T15:24:11.388Z,19.00
2022-10-17T15:26:39.593Z,28.58
2022-10-17T15:29:07.687Z,30.73
2022-10-17T15:31:36.123Z,30.75
2022-10-17T15:34:04.041Z,32.42
2022-10-17T15:36:40.830Z,28.35
2022-10-17T15:39:11.113Z,22.88
2022-10-17T15:41:39.194Z,15.98
2022-10-17T15:44:07.538Z,16.10
2022-10-17T15:46:36.623Z,15.05
2022-10-17T15:49:17.959Z,13.52
2022-10-17T15:51:49.332Z,15.57
2022-10-17T15:54:18.708Z,13.80
2022-10-17T15:56:55.377Z,14.07
2022-10-17T15:59:31.031Z,14.52
2022-10-17T16:01:59.390Z,14.63
2022-10-17T16:04:29.299Z,13.98
2022-10-17T16:06:57.214Z,13.90
2022-10-17T16:09:25.320Z,14.07
2022-10-17T16:11:53.363Z,14.40
2022-10-17T16:14:21.311Z,15.18
2022-10-17T16:16:49.302Z,16.27
2022-10-17T16:19:17.391Z,19.60
2022-10-17T16:21:45.597Z,23.17
2022-10-17T16:24:13.991Z,20.25
2022-10-17T16:26:42.721Z,23.70
2022-10-17T16:29:10.752Z,21.30
2022-10-17T16:31:45.031Z,19.95
2022-10-17T16:34:16.027Z,21.95
2022-10-17T16:36:44.087Z,23.58
2022-10-17T16:39:12.322Z,19.15
2022-10-17T16:41:40.553Z,21.20
2022-10-17T16:44:13.596Z,22.75
2022-10-17T16:46:42.004Z,21.55
2022-10-17T16:49:10.907Z,17.90
2022-10-17T16:51:39.273Z,18.77
2022-10-17T16:54:07.322Z,21.25
2022-10-17T16:56:38.433Z,22.55
2022-10-17T16:59:06.635Z,21.33
2022-10-17T17:01:34.795Z,23.50
2022-10-17T17:04:04.736Z,33.55
2022-10-17T17:06:32.978Z,33.40
2022-10-17T17:09:01.216Z,32.50
2022-10-17T17:11:29.424Z,36.17
2022-10-17T17:13:59.477Z,33.63
2022-10-17T17:16:30.109Z,30.90
2022-10-17T17:19:18.662Z,28.17
2022-10-17T17:21:52.769Z,21.88
2022-10-17T17:24:21.884Z,23.27
2022-10-17T17:26:55.781Z,22.13
2022-10-17T17:29:28.203Z,22.42
2022-10-17T17:31:56.244Z,21.65
2022-10-17T17:34:24.384Z,21.42
2022-10-17T17:36:55.454Z,22.02
2022-10-17T17:39:27.151Z,22.83
2022-10-17T17:41:55.819Z,22.23
2022-10-17T17:44:24.421Z,23.27
2022-10-17T17:46:52.506Z,22.33
2022-10-17T17:49:22.044Z,20.85
2022-10-17T17:51:50.143Z,23.80
2022-10-17T17:54:18.133Z,28.55
2022-10-17T17:56:46.224Z,28.33
2022-10-17T17:59:14.894Z,29.20
2022-10-17T18:01:44.240Z,31.83
2022-10-17T18:04:12.636Z,34.13
2022-10-17T18:06:44.271Z,36.50
2022-10-17T18:09:12.612Z,36.88
2022-10-17T18:11:40.952Z,30.20
2022-10-17T18:14:14.066Z,27.65
2022-10-17T18:16:42.728Z,24.77
2022-10-17T18:19:29.248Z,22.20
2022-10-17T18:21:57.383Z,18.67
2022-10-17T18:24:30.247Z,18.50
2022-10-17T18:27:01.291Z,18.30
2022-10-17T18:29:31.538Z,19.38
2022-10-17T18:32:01.285Z,19.35
2022-10-17T18:34:30.098Z,18.23
2022-10-17T18:37:00.411Z,18.65
2022-10-17T18:39:29.634Z,18.00
2022-10-17T18:41:58.178Z,17.48
2022-10-17T18:44:27.144Z,17.60
2022-10-17T18:46:59.867Z,18.25
2022-10-17T18:49:31.268Z,15.93
2022-10-17T18:52:00.075Z,16.10
2022-10-17T18:54:29.516Z,16.85
2022-10-17T18:56:57.723Z,15.80
2022-10-17T18:59:26.254Z,15.95
2022-10-17T19:01:57.504Z,16.88
2022-10-17T19:04:27.030Z,16.25
2022-10-17T19:06:55.310Z,15.20
2022-10-17T19:09:23.436Z,16.00
2022-10-17T19:11:51.960Z,16.05
2022-10-17T19:14:20.425Z,15.48
2022-10-17T19:16:51.166Z,14.88
2022-10-17T19:19:21.230Z,14.80
2022-10-17T19:21:49.732Z,13.82
2022-10-17T19:24:25.363Z,14.50
2022-10-17T19:26:57.925Z,14.18
2022-10-17T19:29:28.514Z,14.30
2022-10-17T19:31:56.868Z,14.68
2022-10-17T19:34:25.262Z,13.45
2022-10-17T19:36:54.253Z,13.30
2022-10-17T19:39:38.409Z,13.65
2022-10-17T19:42:09.109Z,13.13
2022-10-17T19:44:46.092Z,12.25
2022-10-17T19:47:17.960Z,11.80
2022-10-17T19:49:49.904Z,12.93
2022-10-17T19:52:18.499Z,11.73
2022-10-17T19:54:47.028Z,11.60
2022-10-17T19:57:15.634Z,11.73
2022-10-17T19:59:43.897Z,11.98
2022-10-17T20:02:14.956Z,11.48
2022-10-17T20:04:54.395Z,11.95
2022-10-17T20:07:31.336Z,12.60
2022-10-17T20:09:59.417Z,11.25
2022-10-17T20:12:27.605Z,11.98
2022-10-17T20:14:55.777Z,12.38
2022-10-17T20:17:23.970Z,12.32
2022-10-17T20:19:52.357Z,11.90
2022-10-17T20:22:20.599Z,12.10
2022-10-17T20:24:48.658Z,11.25
2022-10-17T20:27:16.716Z,12.02
2022-10-17T20:29:45.048Z,12.15
2022-10-17T20:32:12.997Z,11.25
2022-10-17T20:34:41.967Z,11.48
2022-10-17T20:37:10.097Z,11.95
2022-10-17T20:39:38.340Z,12.00
2022-10-17T20:42:06.411Z,12.07
2022-10-17T20:44:34.828Z,11.55
2022-10-17T20:47:04.559Z,10.93
2022-10-17T20:49:34.582Z,10.85
2022-10-17T20:52:02.996Z,10.98
2022-10-17T20:54:31.626Z,11.75
2022-10-17T20:57:02.603Z,12.18
2022-10-17T20:59:37.508Z,11.55
2022-10-17T21:02:18.632Z,12.05
2022-10-17T21:04:48.575Z,11.40
2022-10-17T21:07:16.619Z,11.57
2022-10-17T21:10:12.158Z,12.20
2022-10-17T21:12:54.056Z,10.40
2022-10-17T21:15:23.070Z,9.65
2022-10-17T21:17:51.062Z,10.95
2022-10-17T21:20:19.067Z,11.15
2022-10-17T21:22:47.067Z,10.23
2022-10-17T21:25:15.949Z,10.85
2022-10-17T21:27:43.848Z,9.93
2022-10-17T21:30:12.133Z,11.30
2022-10-17T21:32:55.290Z,10.57
2022-10-17T21:35:23.783Z,10.18
2022-10-17T21:37:51.888Z,10.80
2022-10-17T21:40:19.932Z,9.85
2022-10-17T21:42:47.904Z,10.68
2022-10-17T21:45:25.102Z,10.40
2022-10-17T21:48:18.083Z,10.27
2022-10-17T21:50:41.793Z,10.80
2022-10-17T21:53:10.027Z,10.20
2022-10-17T21:55:38.419Z,10.20
2022-10-17T21:58:06.484Z,10.32
2022-10-17T22:00:34.618Z,10.25
2022-10-17T22:03:02.816Z,10.95
2022-10-17T22:05:31.632Z,10.90
2022-10-17T22:07:59.654Z,11.55
2022-10-17T22:10:27.875Z,11.15
2022-10-17T22:12:58.370Z,10.40
2022-10-17T22:15:26.565Z,12.05
2022-10-17T22:17:54.497Z,11.18
2022-10-17T22:20:22.454Z,11.75
2022-10-17T22:22:50.572Z,10.43
2022-10-17T22:25:18.474Z,10.63
2022-10-17T22:27:47.502Z,11.02
2022-10-17T22:30:15.983Z,10.80
2022-10-17T22:32:44.272Z,11.82
2022-10-17T22:35:12.564Z,10.63
2022-10-17T22:37:40.619Z,11.38
2022-10-17T22:40:09.271Z,11.35
2022-10-17T22:42:37.304Z,10.82
2022-10-17T22:45:05.875Z,10.88
2022-10-17T22:47:33.873Z,11.25
2022-10-17T22:50:01.806Z,10.68
2022-10-17T22:52:30.305Z,11.30
2022-10-17T22:54:58.689Z,11.27
2022-10-17T22:57:26.585Z,10.18
2022-10-17T22:59:54.527Z,10.65
2022-10-17T23:02:22.559Z,10.55
2022-10-17T23:04:50.430Z,11.13
2022-10-17T23:07:18.607Z,10.20
2022-10-17T23:09:46.573Z,10.85
2022-10-17T23:12:17.542Z,10.82
2022-10-17T23:14:45.714Z,10.60
2022-10-17T23:17:14.592Z,10.27
2022-10-17T23:19:42.559Z,10.88
2022-10-17T23:22:10.673Z,10.88
2022-10-17T23:24:38.559Z,9.95
2022-10-17T23:27:06.473Z,10.57
2022-10-17T23:29:35.251Z,10.23
2022-10-17T23:32:03.604Z,11.05
2022-10-17T23:34:31.650Z,10.52
2022-10-17T23:36:59.675Z,10.95
2022-10-17T23:39:27.508Z,10.55
2022-10-17T23:41:55.341Z,9.85
2022-10-17T23:44:23.788Z,10.80
2022-10-17T23:46:51.737Z,10.60
2022-10-17T23:49:19.543Z,10.07
2022-10-17T23:51:47.826Z,10.20
2022-10-17T23:54:15.788Z,10.75
2022-10-17T23:56:43.666Z,9.85
2022-10-17T23:59:11.727Z,10.35
